Time;durP1;ratioP1;P1;durP2;ratioP2;P2;SDS_P1;SDS_P2;PMS_P1;PMS_P2;Temp;Humidity;BMP_temperature;BMP_pressure;BME280_temperature;BME280_humidity;BME280_pressure;Samples;Min_cycle;Max_cycle;Signal;HPM_P1;HPM_P2
2023/10/05 00:01:44;;;;;;;10.50;5.83;;;;;;;;;;5011209;28;20206;-77
2023/10/05 00:03:38;;;;;;;10.03;5.53;;;;;;;;;;4999418;28;20187;-76
2023/10/05 00:06:23;;;;;;;10.10;5.60;;;;;;;;;;5008442;28;20194;-76
2023/10/05 00:08:52;;;;;;;10.77;6.20;;;;;;;;;;5005211;28;20194;-77
2023/10/05 00:11:23;;;;;;;10.47;5.83;;;;;;;;;;5008706;28;20202;-77
2023/10/05 00:13:50;;;;;;;10.73;6.10;;;;;;;;;;5016742;28;20184;-77
2023/10/05 00:16:22;;;;;;;9.63;5.80;;;;;;;;;;5018016;28;20206;-77
2023/10/05 00:18:52;;;;;;;12.83;6.00;;;;;;;;;;5011242;28;20183;-76
2023/10/05 00:21:20;;;;;;;14.37;6.50;;;;;;;;;;5015300;28;20571;-76
2023/10/05 00:23:53;;;;;;;10.80;6.20;;;;;;;;;;5009278;28;20191;-76
2023/10/05 00:26:23;;;;;;;8.77;5.47;;;;;;;;;;5010686;28;20270;-76
2023/10/05 00:29:15;;;;;;;10.33;6.03;;;;;;;;;;4981604;28;20273;-77
2023/10/05 00:31:41;;;;;;;12.17;6.10;;;;;;;;;;5012357;28;20183;-76
2023/10/05 00:34:16;;;;;;;9.27;5.90;;;;;;;;;;5012938;28;20278;-77
2023/10/05 00:36:45;;;;;;;9.73;5.40;;;;;;;;;;5011908;28;20198;-77
2023/10/05 00:39:11;;;;;;;10.03;5.97;;;;;;;;;;5014089;28;20266;-76
2023/10/05 00:41:37;;;;;;;9.97;5.53;;;;;;;;;;4993068;28;20210;-76
2023/10/05 00:44:07;;;;;;;10.37;5.97;;;;;;;;;;5010757;28;20293;-78
2023/10/05 00:46:37;;;;;;;9.87;5.63;;;;;;;;;;5007667;28;20252;-77
2023/10/05 00:49:13;;;;;;;12.97;6.00;;;;;;;;;;5016344;28;20197;-76
2023/10/05 00:51:41;;;;;;;11.10;6.10;;;;;;;;;;5004814;28;20337;-76
2023/10/05 00:54:11;;;;;;;9.30;5.63;;;;;;;;;;4997219;28;20190;-76
2023/10/05 00:56:40;;;;;;;9.43;5.67;;;;;;;;;;4990031;28;20211;-76
2023/10/05 00:59:09;;;;;;;10.33;5.57;;;;;;;;;;5013191;28;20193;-76
2023/10/05 01:02:03;;;;;;;9.80;5.70;;;;;;;;;;5010004;28;20201;-76
2023/10/05 01:07:18;;;;;;;11.73;5.73;;;;;;;;;;5011996;28;20199;-78
2023/10/05 01:12:43;;;;;;;7.70;5.17;;;;;;;;;;5008796;28;20189;-77
2023/10/05 01:15:11;;;;;;;9.97;5.60;;;;;;;;;;4992421;28;20561;-77
2023/10/05 01:17:39;;;;;;;8.33;5.47;;;;;;;;;;5016282;28;20206;-77
2023/10/05 01:22:38;;;;;;;10.10;5.73;;;;;;;;;;5011169;28;20187;-77
2023/10/05 01:25:05;;;;;;;9.20;5.57;;;;;;;;;;4991948;28;20184;-77
2023/10/05 01:27:36;;;;;;;8.47;5.90;;;;;;;;;;5007853;28;20183;-76
2023/10/05 01:30:07;;;;;;;10.73;5.63;;;;;;;;;;4991839;28;20203;-76
2023/10/05 01:32:33;;;;;;;11.23;6.10;;;;;;;;;;5008454;28;20187;-77
2023/10/05 01:35:00;;;;;;;9.77;5.10;;;;;;;;;;5011403;28;20191;-76
2023/10/05 01:37:30;;;;;;;10.53;5.60;;;;;;;;;;5008938;28;20238;-76
2023/10/05 01:39:59;;;;;;;11.67;5.83;;;;;;;;;;5011288;28;20706;-77
2023/10/05 01:42:25;;;;;;;9.73;5.20;;;;;;;;;;5006898;28;20187;-77
2023/10/05 01:44:51;;;;;;;9.83;5.87;;;;;;;;;;5010288;28;20685;-76
2023/10/05 01:47:22;;;;;;;11.30;5.60;;;;;;;;;;5024234;28;20186;-77
2023/10/05 01:49:50;;;;;;;9.23;5.30;;;;;;;;;;5010137;28;20203;-77
2023/10/05 01:52:16;;;;;;;8.37;5.53;;;;;;;;;;5009002;28;20218;-77
2023/10/05 01:54:46;;;;;;;9.03;5.23;;;;;;;;;;5011782;28;20274;-77
2023/10/05 01:57:16;;;;;;;8.53;5.60;;;;;;;;;;4990100;28;20215;-76
2023/10/05 01:59:43;;;;;;;8.80;5.37;;;;;;;;;;5004458;28;20206;-77
2023/10/05 02:02:15;;;;;;;9.80;5.27;;;;;;;;;;4975084;28;20557;-77
2023/10/05 02:04:47;;;;;;;10.70;5.33;;;;;;;;;;5009941;28;20175;-78
2023/10/05 02:07:16;;;;;;;8.20;5.03;;;;;;;;;;5015415;28;20191;-77
2023/10/05 02:09:43;;;;;;;9.33;5.73;;;;;;;;;;4999010;28;20296;-77
2023/10/05 02:12:09;;;;;;;9.80;5.83;;;;;;;;;;4988855;28;20195;-77
2023/10/05 02:14:39;;;;;;;10.37;5.33;;;;;;;;;;4991937;28;20429;-77
2023/10/05 02:17:07;;;;;;;11.00;6.10;;;;;;;;;;4999400;28;20929;-77
2023/10/05 02:19:37;;;;;;;10.67;5.10;;;;;;;;;;4990397;28;20191;-77
2023/10/05 02:22:10;;;;;;;10.00;5.00;;;;;;;;;;4997570;28;20261;-77
2023/10/05 02:24:40;;;;;;;9.97;5.33;;;;;;;;;;5009208;28;20709;-76
2023/10/05 02:27:11;;;;;;;9.23;5.33;;;;;;;;;;5010786;28;20682;-76
2023/10/05 02:29:40;;;;;;;10.23;5.27;;;;;;;;;;4992757;28;20199;-76
2023/10/05 02:32:10;;;;;;;9.87;4.93;;;;;;;;;;4991183;28;20261;-77
2023/10/05 02:34:42;;;;;;;6.70;4.33;;;;;;;;;;5003519;28;20274;-76
2023/10/05 02:37:11;;;;;;;10.93;5.20;;;;;;;;;;4996650;28;20235;-76
2023/10/05 02:39:38;;;;;;;8.93;5.17;;;;;;;;;;5014064;28;20202;-76
2023/10/05 02:42:06;;;;;;;8.80;5.23;;;;;;;;;;5002439;28;20261;-77
2023/10/05 02:44:35;;;;;;;10.63;5.60;;;;;;;;;;4993252;28;20191;-76
2023/10/05 02:47:13;;;;;;;8.20;4.60;;;;;;;;;;4991178;28;20195;-76
2023/10/05 02:49:43;;;;;;;9.70;5.27;;;;;;;;;;4991526;28;20631;-76
2023/10/05 02:52:13;;;;;;;9.03;5.10;;;;;;;;;;4989507;28;20277;-77
2023/10/05 02:54:40;;;;;;;8.90;5.07;;;;;;;;;;4991551;28;20752;-77
2023/10/05 02:57:16;;;;;;;8.53;5.03;;;;;;;;;;5006723;28;20215;-77
2023/10/05 02:59:43;;;;;;;10.10;5.40;;;;;;;;;;4995919;28;20300;-78
2023/10/05 03:02:14;;;;;;;10.67;5.57;;;;;;;;;;4976128;28;20198;-77
2023/10/05 03:04:56;;;;;;;7.87;4.93;;;;;;;;;;4999036;28;20763;-77
2023/10/05 03:07:25;;;;;;;10.13;5.23;;;;;;;;;;4989746;28;20210;-78
2023/10/05 03:09:52;;;;;;;8.77;4.87;;;;;;;;;;4979638;28;20296;-76
2023/10/05 03:12:20;;;;;;;10.10;4.87;;;;;;;;;;4988969;28;20205;-77
2023/10/05 03:14:50;;;;;;;6.93;4.77;;;;;;;;;;4991849;28;20342;-77
2023/10/05 03:17:21;;;;;;;7.40;4.40;;;;;;;;;;4996214;28;20683;-76
2023/10/05 03:19:50;;;;;;;9.43;5.17;;;;;;;;;;4985455;28;20674;-78
2023/10/05 03:22:18;;;;;;;7.63;4.80;;;;;;;;;;4995933;28;20189;-76
2023/10/05 03:24:44;;;;;;;11.50;5.40;;;;;;;;;;4999864;28;20241;-77
2023/10/05 03:27:12;;;;;;;8.63;4.60;;;;;;;;;;5002057;28;20187;-78
2023/10/05 03:29:45;;;;;;;9.57;5.03;;;;;;;;;;5004081;28;20214;-77
2023/10/05 03:34:39;;;;;;;8.67;5.00;;;;;;;;;;4999155;28;20186;-77
2023/10/05 03:37:08;;;;;;;8.63;5.27;;;;;;;;;;5014982;28;20290;-77
2023/10/05 03:39:53;;;;;;;11.13;5.03;;;;;;;;;;4991693;28;20352;-77
2023/10/05 03:42:23;;;;;;;8.73;5.33;;;;;;;;;;5021745;28;20190;-77
2023/10/05 03:45:00;;;;;;;7.40;4.77;;;;;;;;;;5008686;28;20194;-78
2023/10/05 03:47:27;;;;;;;10.33;5.07;;;;;;;;;;5005326;28;20193;-76
2023/10/05 03:49:56;;;;;;;9.07;4.90;;;;;;;;;;5011150;28;20293;-77
2023/10/05 03:52:29;;;;;;;7.53;4.97;;;;;;;;;;5001226;28;20187;-77
2023/10/05 03:55:09;;;;;;;8.53;5.10;;;;;;;;;;4994525;28;20205;-77
2023/10/05 03:57:35;;;;;;;5.77;4.47;;;;;;;;;;5007526;28;20275;-77
2023/10/05 04:00:17;;;;;;;9.67;5.30;;;;;;;;;;5007297;28;20224;-77
2023/10/05 04:02:45;;;;;;;8.60;4.80;;;;;;;;;;5017806;28;20189;-77
2023/10/05 04:05:11;;;;;;;8.67;4.90;;;;;;;;;;5008946;28;20191;-77
2023/10/05 04:07:39;;;;;;;9.40;4.90;;;;;;;;;;5007403;28;20236;-76
2023/10/05 04:10:14;;;;;;;10.00;5.00;;;;;;;;;;5020325;28;20212;-77
2023/10/05 04:12:40;;;;;;;9.70;5.20;;;;;;;;;;4983754;28;20228;-76
2023/10/05 04:15:11;;;;;;;10.10;4.80;;;;;;;;;;5024218;28;20201;-76
2023/10/05 04:17:38;;;;;;;7.63;5.07;;;;;;;;;;5022483;28;20717;-77
2023/10/05 04:20:17;;;;;;;10.13;5.63;;;;;;;;;;5023329;28;20686;-76
2023/10/05 04:22:45;;;;;;;8.87;5.20;;;;;;;;;;5006383;28;20187;-77
2023/10/05 04:25:14;;;;;;;10.00;5.27;;;;;;;;;;5006125;28;20250;-78
2023/10/05 04:27:40;;;;;;;7.77;4.50;;;;;;;;;;5015962;28;20184;-76
2023/10/05 04:30:07;;;;;;;8.50;4.90;;;;;;;;;;5013659;28;20831;-76
2023/10/05 04:32:34;;;;;;;8.73;4.83;;;;;;;;;;5015155;28;20575;-77
2023/10/05 04:35:07;;;;;;;7.33;4.50;;;;;;;;;;5017530;28;20195;-77
2023/10/05 04:37:34;;;;;;;8.53;4.90;;;;;;;;;;5012019;28;20226;-78
2023/10/05 04:40:00;;;;;;;7.80;4.33;;;;;;;;;;5010996;28;20210;-78
2023/10/05 04:42:26;;;;;;;6.37;4.07;;;;;;;;;;5010643;28;20179;-78
2023/10/05 04:44:52;;;;;;;9.57;4.60;;;;;;;;;;4993895;28;20199;-77
2023/10/05 04:47:18;;;;;;;10.93;5.10;;;;;;;;;;5010985;28;20273;-77
2023/10/05 04:49:44;;;;;;;8.57;4.87;;;;;;;;;;5009951;28;20277;-77
2023/10/05 04:52:19;;;;;;;10.53;5.17;;;;;;;;;;5011543;28;20179;-77
2023/10/05 04:54:45;;;;;;;8.57;4.93;;;;;;;;;;4995548;28;20191;-77
2023/10/05 04:57:34;;;;;;;8.23;5.13;;;;;;;;;;5012014;28;20297;-77
2023/10/05 05:00:48;;;;;;;11.20;5.23;;;;;;;;;;5008417;28;20199;-78
2023/10/05 05:03:16;;;;;;;13.03;4.87;;;;;;;;;;4997967;28;20274;-77
2023/10/05 05:08:30;;;;;;;9.47;5.00;;;;;;;;;;5008391;28;20928;-77
2023/10/05 05:10:58;;;;;;;7.63;4.23;;;;;;;;;;5010677;28;20214;-78
2023/10/05 05:13:27;;;;;;;10.27;4.73;;;;;;;;;;5011470;28;20210;-76
2023/10/05 05:15:54;;;;;;;9.17;4.47;;;;;;;;;;5014056;28;20687;-77
2023/10/05 05:18:21;;;;;;;8.60;4.57;;;;;;;;;;5014020;28;20179;-76
2023/10/05 05:20:47;;;;;;;6.83;3.73;;;;;;;;;;5004236;28;20203;-77
2023/10/05 05:23:16;;;;;;;7.63;4.47;;;;;;;;;;4988222;28;20229;-77
2023/10/05 05:25:43;;;;;;;9.27;4.60;;;;;;;;;;5010390;28;20274;-77
2023/10/05 05:28:10;;;;;;;8.23;4.07;;;;;;;;;;4993676;28;20229;-77
2023/10/05 05:30:36;;;;;;;6.17;4.13;;;;;;;;;;5007359;28;20318;-77
2023/10/05 05:33:12;;;;;;;7.63;4.20;;;;;;;;;;5011330;28;20585;-77
2023/10/05 05:35:42;;;;;;;7.73;4.70;;;;;;;;;;5008616;28;20174;-77
2023/10/05 05:38:09;;;;;;;10.17;4.53;;;;;;;;;;5008519;28;20190;-77
2023/10/05 05:40:39;;;;;;;9.43;5.03;;;;;;;;;;5008551;28;20256;-82
2023/10/05 05:43:10;;;;;;;10.13;5.17;;;;;;;;;;5007289;28;20280;-81
2023/10/05 05:45:39;;;;;;;11.00;4.90;;;;;;;;;;4991069;28;20803;-80
2023/10/05 05:48:09;;;;;;;8.73;5.07;;;;;;;;;;5005006;28;20324;-80
2023/10/05 05:50:39;;;;;;;10.63;5.60;;;;;;;;;;5008947;28;20262;-82
2023/10/05 05:53:07;;;;;;;10.00;5.67;;;;;;;;;;5016298;28;20192;-80
2023/10/05 05:55:33;;;;;;;8.00;4.77;;;;;;;;;;5011976;28;20233;-79
2023/10/05 05:58:00;;;;;;;9.73;5.07;;;;;;;;;;5012239;28;20561;-81
2023/10/05 06:00:28;;;;;;;10.00;4.93;;;;;;;;;;5013914;28;20206;-81
2023/10/05 06:02:54;;;;;;;8.17;4.87;;;;;;;;;;5011890;28;20184;-84
2023/10/05 06:05:22;;;;;;;9.97;5.20;;;;;;;;;;4999160;28;20242;-88
2023/10/05 06:07:50;;;;;;;9.57;5.30;;;;;;;;;;4980994;28;20190;-80
2023/10/05 06:10:17;;;;;;;11.20;5.57;;;;;;;;;;5013419;28;20234;-84
2023/10/05 06:12:44;;;;;;;9.60;5.03;;;;;;;;;;4992455;28;20206;-84
2023/10/05 06:15:10;;;;;;;8.13;5.07;;;;;;;;;;4998424;28;20198;-84
2023/10/05 06:17:40;;;;;;;9.73;4.80;;;;;;;;;;4999479;28;20684;-84
2023/10/05 06:20:17;;;;;;;9.23;4.83;;;;;;;;;;4973405;28;20219;-84
2023/10/05 06:22:44;;;;;;;9.67;5.13;;;;;;;;;;4988255;28;20190;-84
2023/10/05 06:25:20;;;;;;;7.70;5.00;;;;;;;;;;4973580;28;20191;-83
2023/10/05 06:27:47;;;;;;;8.37;4.73;;;;;;;;;;4998041;28;20770;-84
2023/10/05 06:30:14;;;;;;;8.50;4.60;;;;;;;;;;4987738;28;20207;-83
2023/10/05 06:32:40;;;;;;;8.47;5.03;;;;;;;;;;4981961;28;20195;-84
2023/10/05 06:35:11;;;;;;;8.10;5.13;;;;;;;;;;4980625;28;20582;-82
2023/10/05 06:37:38;;;;;;;7.13;4.50;;;;;;;;;;5016018;28;20218;-81
2023/10/05 06:40:21;;;;;;;8.43;5.00;;;;;;;;;;5018572;28;20207;-81
2023/10/05 06:42:51;;;;;;;8.57;4.80;;;;;;;;;;5028266;28;20230;-81
2023/10/05 06:45:23;;;;;;;11.23;4.93;;;;;;;;;;5025571;28;20277;-81
2023/10/05 06:47:50;;;;;;;8.87;5.13;;;;;;;;;;5003460;28;20187;-80
2023/10/05 06:50:17;;;;;;;9.43;5.27;;;;;;;;;;5016310;28;20334;-81
2023/10/05 06:52:44;;;;;;;9.33;4.93;;;;;;;;;;5005124;28;20832;-80
2023/10/05 06:55:12;;;;;;;8.47;4.50;;;;;;;;;;4986806;28;20191;-80
2023/10/05 06:57:39;;;;;;;8.60;4.87;;;;;;;;;;4995326;28;20222;-82
2023/10/05 07:00:11;;;;;;;8.80;5.00;;;;;;;;;;5012855;28;20211;-81
2023/10/05 07:02:38;;;;;;;9.73;5.30;;;;;;;;;;5012444;28;20600;-82
2023/10/05 07:05:08;;;;;;;7.67;4.63;;;;;;;;;;5015188;28;20250;-81
2023/10/05 07:07:35;;;;;;;8.50;4.73;;;;;;;;;;5012187;28;20595;-80
2023/10/05 07:10:03;;;;;;;8.37;4.50;;;;;;;;;;5017586;28;20207;-82
2023/10/05 07:12:35;;;;;;;8.37;5.10;;;;;;;;;;5003833;28;20566;-80
2023/10/05 07:15:01;;;;;;;8.00;5.03;;;;;;;;;;5013053;28;20191;-82
2023/10/05 07:17:29;;;;;;;14.07;5.00;;;;;;;;;;5017775;28;20203;-81
2023/10/05 07:19:55;;;;;;;8.40;4.77;;;;;;;;;;5023881;28;20202;-80
2023/10/05 07:22:22;;;;;;;9.40;4.80;;;;;;;;;;5025750;28;20725;-81
2023/10/05 07:24:48;;;;;;;8.73;4.80;;;;;;;;;;5017056;28;20218;-81
2023/10/05 07:27:15;;;;;;;8.50;4.93;;;;;;;;;;5019462;28;20214;-80
2023/10/05 07:29:45;;;;;;;10.43;4.80;;;;;;;;;;5018319;28;20210;-82
2023/10/05 07:32:14;;;;;;;11.53;5.10;;;;;;;;;;5029554;28;20232;-81
2023/10/05 07:34:41;;;;;;;7.90;4.87;;;;;;;;;;5025554;28;20564;-82
2023/10/05 07:37:10;;;;;;;10.07;5.20;;;;;;;;;;5014757;28;20214;-80
2023/10/05 07:39:41;;;;;;;8.77;5.17;;;;;;;;;;5025618;28;20202;-80
2023/10/05 07:42:10;;;;;;;11.67;5.37;;;;;;;;;;5025625;28;20317;-80
2023/10/05 07:44:43;;;;;;;8.43;4.70;;;;;;;;;;5025231;28;20190;-80
2023/10/05 07:47:11;;;;;;;8.97;5.03;;;;;;;;;;5028768;28;20229;-80
2023/10/05 07:49:38;;;;;;;9.20;4.97;;;;;;;;;;5026031;28;20193;-80
2023/10/05 07:52:07;;;;;;;9.73;4.87;;;;;;;;;;4988354;28;20586;-81
2023/10/05 07:54:34;;;;;;;9.60;4.80;;;;;;;;;;5010181;28;20244;-82
2023/10/05 07:57:01;;;;;;;8.47;5.13;;;;;;;;;;4990195;28;20213;-80
2023/10/05 07:59:28;;;;;;;6.83;4.30;;;;;;;;;;5005995;28;20179;-81
2023/10/05 08:01:55;;;;;;;8.10;4.50;;;;;;;;;;5002038;28;20195;-82
2023/10/05 08:04:22;;;;;;;10.30;4.50;;;;;;;;;;5020746;28;20198;-81
2023/10/05 08:06:49;;;;;;;13.83;5.03;;;;;;;;;;5020648;28;20205;-82
2023/10/05 08:09:15;;;;;;;10.27;4.47;;;;;;;;;;5021794;28;20210;-81
2023/10/05 08:11:44;;;;;;;9.70;4.57;;;;;;;;;;5006610;28;20203;-80
2023/10/05 08:14:11;;;;;;;7.43;4.77;;;;;;;;;;5006043;28;20205;-82
2023/10/05 08:16:38;;;;;;;11.57;4.97;;;;;;;;;;5003010;28;20258;-80
2023/10/05 08:19:05;;;;;;;9.77;5.23;;;;;;;;;;5033097;28;20617;-81
2023/10/05 08:21:31;;;;;;;11.07;5.00;;;;;;;;;;5026879;28;20207;-81
2023/10/05 08:23:58;;;;;;;9.40;4.93;;;;;;;;;;5003957;28;20202;-81
2023/10/05 08:26:28;;;;;;;10.70;5.47;;;;;;;;;;5008243;28;20252;-81
2023/10/05 08:28:55;;;;;;;9.73;5.40;;;;;;;;;;4996085;28;20747;-80
2023/10/05 08:31:23;;;;;;;9.70;5.20;;;;;;;;;;4999067;28;20210;-82
2023/10/05 08:33:55;;;;;;;10.20;5.00;;;;;;;;;;5003262;28;20730;-81
2023/10/05 08:36:21;;;;;;;8.63;4.90;;;;;;;;;;5005137;28;20210;-81
2023/10/05 08:38:48;;;;;;;9.87;4.90;;;;;;;;;;4991509;28;20182;-81
2023/10/05 08:41:24;;;;;;;8.53;4.93;;;;;;;;;;5006933;28;20733;-80
2023/10/05 08:43:50;;;;;;;10.03;4.93;;;;;;;;;;4998251;28;20203;-80
2023/10/05 08:46:19;;;;;;;10.87;5.70;;;;;;;;;;4995792;28;20773;-80
2023/10/05 08:48:46;;;;;;;8.50;5.13;;;;;;;;;;5005316;28;20190;-82
2023/10/05 08:51:13;;;;;;;9.37;5.23;;;;;;;;;;4989088;28;20211;-80
2023/10/05 08:53:49;;;;;;;9.07;4.80;;;;;;;;;;5017850;28;20201;-81
2023/10/05 08:56:18;;;;;;;14.20;5.60;;;;;;;;;;5019462;28;20225;-81
2023/10/05 08:58:45;;;;;;;9.80;5.10;;;;;;;;;;5018845;28;20184;-80
2023/10/05 09:01:24;;;;;;;9.93;5.30;;;;;;;;;;5009714;28;20206;-82
2023/10/05 09:03:53;;;;;;;9.10;5.07;;;;;;;;;;4996629;28;20222;-80
2023/10/05 09:06:20;;;;;;;10.03;4.70;;;;;;;;;;5005745;28;20264;-80
2023/10/05 09:08:54;;;;;;;9.73;4.70;;;;;;;;;;5023483;28;20186;-81
2023/10/05 09:11:31;;;;;;;9.63;5.07;;;;;;;;;;5023947;28;20270;-81
2023/10/05 09:14:05;;;;;;;9.13;4.40;;;;;;;;;;4995886;28;20187;-80
2023/10/05 09:16:35;;;;;;;10.90;4.97;;;;;;;;;;5009932;28;20259;-81
2023/10/05 09:19:05;;;;;;;8.90;4.40;;;;;;;;;;5027988;28;20214;-80
2023/10/05 09:21:44;;;;;;;9.60;4.97;;;;;;;;;;5017532;28;20229;-83
2023/10/05 09:24:19;;;;;;;13.60;5.00;;;;;;;;;;4995317;28;20179;-81
2023/10/05 09:26:52;;;;;;;9.53;5.00;;;;;;;;;;5019884;28;20369;-81
2023/10/05 09:29:22;;;;;;;9.33;4.83;;;;;;;;;;5012935;28;20232;-84
2023/10/05 09:31:53;;;;;;;9.33;4.60;;;;;;;;;;4985830;28;20526;-80
2023/10/05 09:34:41;;;;;;;8.60;4.80;;;;;;;;;;5019439;28;20195;-82
2023/10/05 09:37:08;;;;;;;10.50;5.13;;;;;;;;;;5027193;28;20206;-80
2023/10/05 09:39:49;;;;;;;8.27;4.77;;;;;;;;;;5004546;28;20288;-80
2023/10/05 09:42:25;;;;;;;10.07;4.77;;;;;;;;;;5017185;28;20198;-81
2023/10/05 09:44:51;;;;;;;10.13;5.03;;;;;;;;;;4998157;28;20195;-81
2023/10/05 09:47:22;;;;;;;9.77;5.07;;;;;;;;;;5026059;28;20191;-80
2023/10/05 09:49:50;;;;;;;8.03;4.40;;;;;;;;;;5017615;28;20210;-80
2023/10/05 09:52:19;;;;;;;10.10;4.50;;;;;;;;;;5015460;28;20196;-80
2023/10/05 09:54:47;;;;;;;9.13;4.80;;;;;;;;;;5014627;28;20663;-81
2023/10/05 09:57:16;;;;;;;10.03;5.30;;;;;;;;;;4996782;28;20215;-81
2023/10/05 09:59:45;;;;;;;10.33;4.63;;;;;;;;;;5007248;28;20615;-82
2023/10/05 10:02:14;;;;;;;9.60;4.63;;;;;;;;;;5015289;28;20186;-81
2023/10/05 10:04:41;;;;;;;9.60;4.87;;;;;;;;;;5019385;28;20178;-81
2023/10/05 10:07:15;;;;;;;8.60;5.03;;;;;;;;;;5018977;28;20193;-81
2023/10/05 10:09:44;;;;;;;9.67;4.87;;;;;;;;;;5024268;28;20221;-81
2023/10/05 10:12:11;;;;;;;11.23;5.60;;;;;;;;;;5019837;28;20191;-81
2023/10/05 10:14:41;;;;;;;8.63;4.97;;;;;;;;;;5019907;28;20213;-82
2023/10/05 10:17:16;;;;;;;8.67;5.07;;;;;;;;;;5018706;28;20213;-81
2023/10/05 10:19:55;;;;;;;8.73;4.60;;;;;;;;;;5014236;28;20277;-81
2023/10/05 10:22:28;;;;;;;8.13;4.80;;;;;;;;;;4983441;28;20567;-82
2023/10/05 10:24:56;;;;;;;11.63;5.20;;;;;;;;;;5018985;28;20265;-81
2023/10/05 10:27:28;;;;;;;9.97;4.73;;;;;;;;;;4999073;28;20186;-81
2023/10/05 10:29:56;;;;;;;12.50;5.57;;;;;;;;;;5028917;28;20206;-81
2023/10/05 10:32:30;;;;;;;9.47;4.53;;;;;;;;;;5017202;28;20195;-81
2023/10/05 10:35:06;;;;;;;8.63;4.70;;;;;;;;;;5024399;28;20190;-82
2023/10/05 10:37:39;;;;;;;10.47;4.93;;;;;;;;;;5023736;28;20211;-81
2023/10/05 10:40:32;;;;;;;9.33;4.80;;;;;;;;;;4996938;28;20227;-83
2023/10/05 10:45:33;;;;;;;10.93;4.83;;;;;;;;;;5028639;28;20688;-82
2023/10/05 10:48:00;;;;;;;8.70;4.60;;;;;;;;;;4983518;28;20219;-82
2023/10/05 10:50:30;;;;;;;13.00;5.23;;;;;;;;;;5012951;28;20241;-80
2023/10/05 10:52:58;;;;;;;9.53;4.93;;;;;;;;;;5012025;28;20191;-79
2023/10/05 10:55:30;;;;;;;11.70;5.00;;;;;;;;;;5022383;28;20175;-79
2023/10/05 10:57:57;;;;;;;9.60;4.73;;;;;;;;;;5016593;28;20217;-78
2023/10/05 11:03:13;;;;;;;11.53;5.27;;;;;;;;;;5026127;28;20257;-79
2023/10/05 11:05:51;;;;;;;11.07;4.73;;;;;;;;;;5012225;28;20258;-78
2023/10/05 11:08:20;;;;;;;10.77;5.17;;;;;;;;;;5030469;28;20192;-79
2023/10/05 11:13:43;;;;;;;11.70;5.30;;;;;;;;;;5017099;28;20187;-78
2023/10/05 11:16:11;;;;;;;10.97;5.27;;;;;;;;;;4998233;28;20289;-79
2023/10/05 11:18:50;;;;;;;8.37;4.30;;;;;;;;;;5014391;28;20193;-78
2023/10/05 11:21:19;;;;;;;11.07;5.37;;;;;;;;;;5010253;28;20285;-77
2023/10/05 11:23:55;;;;;;;10.20;4.60;;;;;;;;;;5015954;28;20273;-78
2023/10/05 11:27:05;;;;;;;10.37;5.00;;;;;;;;;;5022142;28;20179;-79
2023/10/05 11:29:33;;;;;;;13.20;5.43;;;;;;;;;;5015436;28;20310;-77
2023/10/05 11:32:03;;;;;;;10.27;4.77;;;;;;;;;;4999295;28;20198;-78
2023/10/05 11:34:38;;;;;;;10.43;4.73;;;;;;;;;;5017956;28;20647;-78
2023/10/05 11:37:15;;;;;;;9.03;5.00;;;;;;;;;;4971564;28;20211;-78
2023/10/05 11:39:45;;;;;;;11.57;5.30;;;;;;;;;;5013242;28;20230;-81
2023/10/05 11:42:11;;;;;;;11.87;4.90;;;;;;;;;;5009825;28;20703;-79
2023/10/05 11:44:42;;;;;;;8.60;4.53;;;;;;;;;;5007864;28;20192;-83
2023/10/05 11:47:08;;;;;;;9.23;4.90;;;;;;;;;;4979179;28;20183;-79
2023/10/05 11:49:34;;;;;;;9.60;4.73;;;;;;;;;;4994152;28;20474;-78
2023/10/05 11:52:00;;;;;;;8.17;4.70;;;;;;;;;;5009794;28;20207;-80
2023/10/05 11:54:30;;;;;;;11.50;4.60;;;;;;;;;;5013338;28;20667;-80
2023/10/05 11:56:56;;;;;;;8.27;4.47;;;;;;;;;;4994942;28;20230;-82
2023/10/05 11:59:29;;;;;;;8.83;4.53;;;;;;;;;;5008977;28;20183;-81
2023/10/05 12:01:55;;;;;;;8.03;4.43;;;;;;;;;;5011368;28;20338;-78
2023/10/05 12:04:28;;;;;;;9.10;4.60;;;;;;;;;;5015114;28;20175;-81
2023/10/05 12:07:00;;;;;;;9.80;4.30;;;;;;;;;;5020341;28;20607;-81
2023/10/05 12:09:27;;;;;;;9.50;4.60;;;;;;;;;;5015193;28;20182;-81
2023/10/05 12:11:58;;;;;;;10.20;4.20;;;;;;;;;;5022273;28;20192;-81
2023/10/05 12:14:25;;;;;;;9.37;4.20;;;;;;;;;;5013769;28;20201;-81
2023/10/05 12:16:52;;;;;;;8.67;4.17;;;;;;;;;;5015120;28;20756;-81
2023/10/05 12:19:27;;;;;;;9.93;4.43;;;;;;;;;;5008480;28;20182;-81
2023/10/05 12:21:55;;;;;;;11.70;4.50;;;;;;;;;;5009863;28;20244;-81
2023/10/05 12:24:21;;;;;;;9.40;4.33;;;;;;;;;;5018094;28;20211;-82
2023/10/05 12:26:48;;;;;;;9.83;4.87;;;;;;;;;;5027503;28;20553;-81
2023/10/05 12:29:14;;;;;;;10.10;4.17;;;;;;;;;;5024177;28;20183;-81
2023/10/05 12:31:47;;;;;;;10.07;4.50;;;;;;;;;;5019544;28;20207;-81
2023/10/05 12:34:17;;;;;;;9.87;4.70;;;;;;;;;;5025381;28;20186;-80
2023/10/05 12:36:49;;;;;;;10.23;4.40;;;;;;;;;;5009528;28;20546;-81
2023/10/05 12:39:17;;;;;;;9.70;4.10;;;;;;;;;;5019363;28;20687;-81
2023/10/05 12:41:46;;;;;;;8.07;4.30;;;;;;;;;;5030008;28;20328;-81
2023/10/05 12:44:13;;;;;;;12.30;4.07;;;;;;;;;;5023762;28;20201;-81
2023/10/05 12:46:45;;;;;;;7.50;3.80;;;;;;;;;;4999281;28;20190;-81
2023/10/05 12:49:15;;;;;;;9.70;4.33;;;;;;;;;;5007541;28;20176;-79
2023/10/05 12:51:41;;;;;;;10.60;3.83;;;;;;;;;;5016744;28;20851;-83
2023/10/05 12:54:09;;;;;;;10.83;4.10;;;;;;;;;;4998704;28;20175;-81
2023/10/05 12:56:38;;;;;;;12.07;4.03;;;;;;;;;;5006906;28;20340;-80
2023/10/05 12:59:07;;;;;;;7.33;4.00;;;;;;;;;;5008820;28;20195;-80
2023/10/05 13:01:44;;;;;;;10.27;4.27;;;;;;;;;;5013785;28;20229;-81
2023/10/05 13:04:11;;;;;;;11.20;4.60;;;;;;;;;;5012386;28;20175;-80
2023/10/05 13:06:38;;;;;;;8.70;4.10;;;;;;;;;;5010689;28;20191;-80
2023/10/05 13:09:11;;;;;;;7.73;3.90;;;;;;;;;;5020272;28;20198;-80
2023/10/05 13:11:39;;;;;;;12.03;4.07;;;;;;;;;;5013580;28;20302;-81
2023/10/05 13:14:13;;;;;;;9.50;3.90;;;;;;;;;;5015189;28;20184;-80
2023/10/05 13:16:40;;;;;;;8.90;4.00;;;;;;;;;;4999561;28;20209;-80
2023/10/05 13:19:09;;;;;;;6.63;3.33;;;;;;;;;;5014730;28;20179;-81
2023/10/05 13:21:36;;;;;;;8.80;3.60;;;;;;;;;;5012833;28;20207;-79
2023/10/05 13:24:02;;;;;;;8.63;3.47;;;;;;;;;;4998732;28;20198;-80
2023/10/05 13:26:29;;;;;;;5.40;3.00;;;;;;;;;;5006958;28;20541;-80
2023/10/05 13:28:59;;;;;;;7.50;4.00;;;;;;;;;;4989908;28;20268;-80
2023/10/05 13:31:25;;;;;;;10.53;4.03;;;;;;;;;;5009523;28;20258;-79
2023/10/05 13:33:55;;;;;;;7.87;3.50;;;;;;;;;;5008492;28;20249;-80
2023/10/05 13:36:21;;;;;;;7.33;3.30;;;;;;;;;;5018381;28;20698;-80
2023/10/05 13:38:48;;;;;;;5.43;3.23;;;;;;;;;;5015200;28;20179;-80
2023/10/05 13:41:14;;;;;;;7.13;3.10;;;;;;;;;;5019206;28;20210;-81
2023/10/05 13:43:40;;;;;;;6.90;3.30;;;;;;;;;;5010637;28;20671;-80
2023/10/05 13:46:16;;;;;;;6.57;3.10;;;;;;;;;;5006829;28;20214;-81
2023/10/05 13:48:45;;;;;;;6.27;3.03;;;;;;;;;;5008502;28;20195;-81
2023/10/05 13:51:12;;;;;;;7.40;3.10;;;;;;;;;;5016283;28;20202;-81
2023/10/05 13:53:42;;;;;;;6.87;3.03;;;;;;;;;;4997855;28;20179;-81
2023/10/05 13:56:09;;;;;;;6.20;3.00;;;;;;;;;;4989735;28;20322;-82
2023/10/05 13:58:36;;;;;;;5.77;2.97;;;;;;;;;;4992289;28;20571;-81
2023/10/05 14:01:03;;;;;;;7.10;2.83;;;;;;;;;;5007611;28;20210;-81
2023/10/05 14:03:30;;;;;;;5.77;2.80;;;;;;;;;;5009972;28;20201;-81
2023/10/05 14:06:04;;;;;;;7.80;3.20;;;;;;;;;;5013666;28;20194;-80
2023/10/05 14:08:31;;;;;;;7.13;2.67;;;;;;;;;;5006724;28;20191;-80
2023/10/05 14:10:59;;;;;;;6.43;2.67;;;;;;;;;;5013698;28;20591;-81
2023/10/05 14:13:31;;;;;;;5.27;2.30;;;;;;;;;;5006138;28;20263;-81
2023/10/05 14:16:00;;;;;;;5.10;2.70;;;;;;;;;;4978626;28;20191;-79
2023/10/05 14:18:30;;;;;;;6.27;2.47;;;;;;;;;;5007491;28;20185;-76
2023/10/05 14:20:56;;;;;;;5.03;2.60;;;;;;;;;;5004991;28;20203;-79
2023/10/05 14:23:29;;;;;;;6.13;2.47;;;;;;;;;;5006687;28;20191;-80
2023/10/05 14:25:55;;;;;;;4.90;2.53;;;;;;;;;;5007667;28;20183;-80
2023/10/05 14:28:25;;;;;;;5.63;2.30;;;;;;;;;;5004509;28;20570;-81
2023/10/05 14:30:51;;;;;;;5.57;2.50;;;;;;;;;;5008293;28;20203;-80
2023/10/05 14:33:17;;;;;;;5.00;2.20;;;;;;;;;;5002118;28;21642;-80
2023/10/05 14:35:45;;;;;;;4.40;2.73;;;;;;;;;;4988581;28;20193;-80
2023/10/05 14:38:15;;;;;;;5.17;2.70;;;;;;;;;;4990499;28;20674;-80
2023/10/05 14:40:42;;;;;;;4.53;2.30;;;;;;;;;;5003221;28;20595;-80
2023/10/05 14:43:08;;;;;;;5.77;2.33;;;;;;;;;;5009505;28;20195;-80
2023/10/05 14:45:35;;;;;;;4.60;2.60;;;;;;;;;;4990138;28;20871;-80
2023/10/05 14:48:04;;;;;;;4.50;2.50;;;;;;;;;;5000110;28;20218;-80
2023/10/05 14:50:32;;;;;;;4.00;2.20;;;;;;;;;;5008430;28;20611;-80
2023/10/05 14:52:59;;;;;;;5.27;2.50;;;;;;;;;;4986451;28;20210;-80
2023/10/05 14:55:26;;;;;;;5.67;2.33;;;;;;;;;;5005532;28;20258;-80
2023/10/05 14:57:55;;;;;;;5.87;2.60;;;;;;;;;;4994936;28;20206;-80
2023/10/05 15:00:23;;;;;;;7.37;2.70;;;;;;;;;;5002155;28;20199;-80
2023/10/05 15:02:49;;;;;;;8.53;2.50;;;;;;;;;;5005881;28;20175;-80
2023/10/05 15:05:15;;;;;;;5.90;2.50;;;;;;;;;;4997966;28;20192;-80
2023/10/05 15:07:43;;;;;;;4.63;2.43;;;;;;;;;;5004645;28;20187;-80
2023/10/05 15:10:19;;;;;;;4.23;2.53;;;;;;;;;;5006310;28;20211;-80
2023/10/05 15:12:46;;;;;;;8.53;2.70;;;;;;;;;;5005524;28;20187;-80
2023/10/05 15:15:15;;;;;;;7.17;3.10;;;;;;;;;;5006048;28;20187;-80